Time;durP1;ratioP1;P1;durP2;ratioP2;P2;SDS_P1;SDS_P2;PMS_P1;PMS_P2;Temp;Humidity;BMP_temperature;BMP_pressure;BME280_temperature;BME280_humidity;BME280_pressure;Samples;Min_cycle;Max_cycle;Signal;HPM_P1;HPM_P2
2022/12/22 03:26:18;;;;;;;9.97;4.33;;;;;;;;;;5016646;28;20937;-86
2022/12/22 03:28:44;;;;;;;10.93;4.60;;;;;;;;;;5032069;28;20427;-86
2022/12/22 03:31:11;;;;;;;9.23;5.27;;;;;;;;;;5038579;28;20447;-86
2022/12/22 03:33:37;;;;;;;10.03;5.60;;;;;;;;;;5020173;28;20419;-85
2022/12/22 03:36:03;;;;;;;10.70;5.60;;;;;;;;;;4982490;28;20514;-84
2022/12/22 03:38:29;;;;;;;11.60;5.20;;;;;;;;;;5038761;28;20423;-85
2022/12/22 03:40:55;;;;;;;10.90;6.10;;;;;;;;;;5023810;28;20845;-84
2022/12/22 03:49:09;;;;;;;10.87;5.70;;;;;;;;;;5020643;28;20970;-85
2022/12/22 03:51:36;;;;;;;10.60;5.90;;;;;;;;;;5021579;28;20427;-85
2022/12/22 03:54:02;;;;;;;11.30;6.00;;;;;;;;;;5038575;28;20423;-85
2022/12/22 03:56:28;;;;;;;7.73;4.90;;;;;;;;;;5022980;28;20460;-85
2022/12/22 03:58:54;;;;;;;7.90;4.77;;;;;;;;;;5020760;28;20805;-84
2022/12/22 04:01:20;;;;;;;10.27;5.90;;;;;;;;;;5022687;28;20409;-85
2022/12/22 04:03:47;;;;;;;10.33;6.07;;;;;;;;;;5022484;28;20902;-85
2022/12/22 04:06:13;;;;;;;9.33;4.80;;;;;;;;;;5039533;28;20417;-85
2022/12/22 04:08:39;;;;;;;8.10;4.30;;;;;;;;;;5023862;28;20418;-85
2022/12/22 04:13:49;;;;;;;9.00;4.87;;;;;;;;;;5022151;28;20491;-85
2022/12/22 04:16:15;;;;;;;7.63;4.87;;;;;;;;;;5038748;28;20994;-85
2022/12/22 04:18:41;;;;;;;14.57;6.00;;;;;;;;;;5023201;28;20516;-84
2022/12/22 04:21:07;;;;;;;7.80;6.10;;;;;;;;;;5022932;28;20433;-85
2022/12/22 04:23:33;;;;;;;8.17;5.70;;;;;;;;;;5021045;28;20424;-85
2022/12/22 04:25:59;;;;;;;10.23;4.93;;;;;;;;;;5038298;28;20423;-85
2022/12/22 04:28:25;;;;;;;8.17;5.23;;;;;;;;;;5023868;28;20425;-86
2022/12/22 04:30:52;;;;;;;7.80;5.90;;;;;;;;;;5022411;28;20448;-85
2022/12/22 04:33:18;;;;;;;11.83;6.33;;;;;;;;;;5038268;28;20407;-85
2022/12/22 04:35:44;;;;;;;8.63;4.43;;;;;;;;;;4999104;28;21427;-85
2022/12/22 04:38:09;;;;;;;8.23;4.70;;;;;;;;;;5020381;28;20523;-84
2022/12/22 04:40:35;;;;;;;10.30;6.53;;;;;;;;;;5038506;28;20951;-85
2022/12/22 04:43:15;;;;;;;9.80;6.03;;;;;;;;;;5021859;28;20436;-85
2022/12/22 04:45:43;;;;;;;10.60;7.07;;;;;;;;;;5020296;28;20420;-85
2022/12/22 04:48:31;;;;;;;11.23;5.93;;;;;;;;;;5014152;28;20413;-86
2022/12/22 04:51:34;;;;;;;9.60;5.23;;;;;;;;;;5013711;28;20991;-85
2022/12/22 04:54:40;;;;;;;10.13;6.37;;;;;;;;;;5012795;28;20513;-85
2022/12/22 04:57:40;;;;;;;9.70;5.53;;;;;;;;;;5013676;28;20466;-86
2022/12/22 05:00:28;;;;;;;9.90;5.90;;;;;;;;;;5012872;28;20478;-86
2022/12/22 05:03:01;;;;;;;12.37;6.50;;;;;;;;;;5013797;28;20482;-85
2022/12/22 05:05:27;;;;;;;11.60;6.53;;;;;;;;;;5014080;28;20881;-85
2022/12/22 05:07:52;;;;;;;10.37;5.67;;;;;;;;;;5012517;28;20429;-84
2022/12/22 05:10:18;;;;;;;10.60;7.50;;;;;;;;;;5012499;28;20425;-84
2022/12/22 05:12:53;;;;;;;11.97;6.87;;;;;;;;;;5013497;28;20412;-85
2022/12/22 05:15:19;;;;;;;13.80;6.07;;;;;;;;;;5013570;28;20498;-84
2022/12/22 05:17:45;;;;;;;16.03;7.73;;;;;;;;;;5013596;28;20884;-84
2022/12/22 05:20:11;;;;;;;9.37;5.40;;;;;;;;;;5013664;28;20420;-86
2022/12/22 05:22:37;;;;;;;10.50;5.77;;;;;;;;;;5012287;28;20429;-85
2022/12/22 05:25:03;;;;;;;10.60;7.17;;;;;;;;;;5013237;28;20412;-85
2022/12/22 05:27:29;;;;;;;9.23;6.73;;;;;;;;;;5011453;28;20421;-85
2022/12/22 05:29:58;;;;;;;11.10;5.77;;;;;;;;;;5012317;28;20424;-86
2022/12/22 05:32:24;;;;;;;13.80;8.20;;;;;;;;;;5013465;28;20510;-85
2022/12/22 05:34:50;;;;;;;11.10;6.17;;;;;;;;;;5012128;28;21009;-85
2022/12/22 05:37:15;;;;;;;12.83;6.97;;;;;;;;;;4971650;28;20527;-85
2022/12/22 05:39:41;;;;;;;12.27;6.27;;;;;;;;;;5013467;28;20440;-86
2022/12/22 05:42:07;;;;;;;9.10;5.97;;;;;;;;;;5028365;28;20899;-86
2022/12/22 05:44:33;;;;;;;10.23;5.87;;;;;;;;;;5013476;28;20422;-86
2022/12/22 05:46:59;;;;;;;8.67;6.13;;;;;;;;;;5028381;28;20440;-87
2022/12/22 05:49:25;;;;;;;13.07;7.37;;;;;;;;;;5013415;28;20420;-86
2022/12/22 05:51:53;;;;;;;9.43;5.97;;;;;;;;;;5028542;28;20922;-85
2022/12/22 05:54:18;;;;;;;12.90;7.60;;;;;;;;;;5013282;28;20833;-85
2022/12/22 05:56:44;;;;;;;10.90;6.00;;;;;;;;;;5012880;28;20503;-84
2022/12/22 05:59:11;;;;;;;10.40;7.20;;;;;;;;;;5028443;28;20429;-85
2022/12/22 06:01:36;;;;;;;10.93;6.63;;;;;;;;;;5013297;28;20475;-85
2022/12/22 06:04:02;;;;;;;10.67;6.83;;;;;;;;;;5028436;28;20423;-84
2022/12/22 06:06:29;;;;;;;11.40;7.27;;;;;;;;;;5013158;28;20409;-84
2022/12/22 06:08:54;;;;;;;14.47;8.30;;;;;;;;;;5028341;28;20432;-84
2022/12/22 06:11:20;;;;;;;13.63;7.70;;;;;;;;;;5012764;28;20436;-85
2022/12/22 06:13:46;;;;;;;12.00;7.40;;;;;;;;;;5028233;28;20423;-85
2022/12/22 06:16:12;;;;;;;12.30;7.77;;;;;;;;;;5012863;28;20487;-84
2022/12/22 06:18:38;;;;;;;9.87;4.97;;;;;;;;;;5028169;28;20520;-85
2022/12/22 06:21:04;;;;;;;11.17;6.27;;;;;;;;;;5013807;28;20799;-86
2022/12/22 06:23:30;;;;;;;9.33;6.70;;;;;;;;;;5028479;28;20996;-86
2022/12/22 06:25:57;;;;;;;8.83;6.00;;;;;;;;;;5027543;28;20424;-87
2022/12/22 06:28:23;;;;;;;11.53;6.43;;;;;;;;;;5028229;28;20981;-86
2022/12/22 06:30:49;;;;;;;10.80;5.87;;;;;;;;;;5012967;28;20929;-86
2022/12/22 06:33:18;;;;;;;9.90;6.53;;;;;;;;;;5028098;28;20430;-86
2022/12/22 06:35:44;;;;;;;10.20;5.73;;;;;;;;;;4989849;28;20903;-86
2022/12/22 06:38:10;;;;;;;10.43;6.43;;;;;;;;;;5014097;28;20531;-86
2022/12/22 06:40:36;;;;;;;8.50;6.00;;;;;;;;;;5031942;28;20421;-85
2022/12/22 06:43:08;;;;;;;8.57;6.47;;;;;;;;;;5031457;28;20494;-85
2022/12/22 06:45:38;;;;;;;10.93;6.37;;;;;;;;;;5016425;28;20502;-87
2022/12/22 06:48:04;;;;;;;11.67;7.53;;;;;;;;;;5016455;28;20830;-85
2022/12/22 06:50:30;;;;;;;10.70;6.90;;;;;;;;;;5031799;28;20420;-85
2022/12/22 06:52:56;;;;;;;12.53;5.80;;;;;;;;;;5031553;28;20415;-85
2022/12/22 06:55:22;;;;;;;11.03;6.50;;;;;;;;;;5024026;28;20924;-85
2022/12/22 06:57:48;;;;;;;10.83;6.40;;;;;;;;;;5027018;28;20480;-86
2022/12/22 07:00:14;;;;;;;12.60;7.17;;;;;;;;;;5051451;28;20421;-86
2022/12/22 07:02:40;;;;;;;10.77;6.33;;;;;;;;;;5036076;28;20475;-85
2022/12/22 07:05:06;;;;;;;14.70;6.87;;;;;;;;;;5036037;28;20416;-84
2022/12/22 07:07:32;;;;;;;9.90;6.63;;;;;;;;;;5035843;28;20420;-84
2022/12/22 07:09:58;;;;;;;10.00;7.00;;;;;;;;;;5051137;28;20781;-84
2022/12/22 07:12:24;;;;;;;10.37;6.53;;;;;;;;;;5035390;28;20424;-84
2022/12/22 07:14:50;;;;;;;12.77;7.60;;;;;;;;;;5035677;28;20466;-84
2022/12/22 07:17:16;;;;;;;11.50;7.63;;;;;;;;;;5035642;28;20558;-85
2022/12/22 07:19:42;;;;;;;10.07;6.90;;;;;;;;;;5035733;28;20431;-85
2022/12/22 07:22:08;;;;;;;15.30;8.10;;;;;;;;;;5050942;28;20425;-85
2022/12/22 07:24:34;;;;;;;15.23;8.43;;;;;;;;;;5035597;28;20459;-86
2022/12/22 07:27:00;;;;;;;13.20;8.20;;;;;;;;;;5028037;28;20508;-86
2022/12/22 07:29:25;;;;;;;14.47;7.00;;;;;;;;;;5035585;28;20409;-85
2022/12/22 07:31:51;;;;;;;11.73;7.70;;;;;;;;;;5035296;28;20475;-86
2022/12/22 07:34:17;;;;;;;12.20;8.60;;;;;;;;;;5035275;28;20408;-86
2022/12/22 07:36:43;;;;;;;11.67;8.80;;;;;;;;;;4998853;28;20825;-86
2022/12/22 07:39:10;;;;;;;21.40;13.47;;;;;;;;;;5030659;28;20455;-85
2022/12/22 07:44:21;;;;;;;27.73;20.00;;;;;;;;;;5015912;28;20421;-86
2022/12/22 07:46:47;;;;;;;21.47;16.90;;;;;;;;;;5030548;28;20429;-86
2022/12/22 07:51:58;;;;;;;26.47;16.20;;;;;;;;;;5015805;28;20415;-86
2022/12/22 07:54:24;;;;;;;23.30;16.07;;;;;;;;;;5030808;28;20414;-88
2022/12/22 07:56:50;;;;;;;30.30;18.60;;;;;;;;;;5030124;28;20474;-86
2022/12/22 07:59:17;;;;;;;21.80;13.33;;;;;;;;;;5030463;28;20951;-85
2022/12/22 08:01:44;;;;;;;23.43;13.50;;;;;;;;;;5015230;28;20430;-88
2022/12/22 08:04:13;;;;;;;22.47;14.10;;;;;;;;;;5030291;28;20429;-88
2022/12/22 08:06:40;;;;;;;20.37;12.27;;;;;;;;;;5015082;28;20914;-88
2022/12/22 08:09:07;;;;;;;24.13;12.50;;;;;;;;;;5015073;28;20776;-88
2022/12/22 08:11:33;;;;;;;25.83;13.77;;;;;;;;;;5029933;28;20425;-88
2022/12/22 08:13:59;;;;;;;23.17;9.57;;;;;;;;;;5015178;28;20730;-86
2022/12/22 08:16:25;;;;;;;26.70;14.27;;;;;;;;;;5014816;28;20825;-88
2022/12/22 08:18:51;;;;;;;19.00;10.90;;;;;;;;;;5029968;28;20509;-86
2022/12/22 08:21:17;;;;;;;21.53;14.43;;;;;;;;;;5014739;28;20439;-85
2022/12/22 08:23:43;;;;;;;68.60;38.17;;;;;;;;;;5029878;28;20422;-86
2022/12/22 08:26:12;;;;;;;105.43;62.60;;;;;;;;;;5029514;28;20512;-85
2022/12/22 08:28:48;;;;;;;95.07;50.83;;;;;;;;;;5014687;28;20418;-87
2022/12/22 08:31:15;;;;;;;95.57;55.20;;;;;;;;;;5029891;28;20415;-87
2022/12/22 08:33:41;;;;;;;96.50;58.63;;;;;;;;;;5029740;28;20923;-86
2022/12/22 08:36:07;;;;;;;30.03;20.20;;;;;;;;;;5029701;28;20988;-86
2022/12/22 08:38:34;;;;;;;22.80;17.30;;;;;;;;;;5014716;28;20505;-88
2022/12/22 08:41:00;;;;;;;24.60;17.67;;;;;;;;;;5029393;28;20485;-87
2022/12/22 08:43:27;;;;;;;17.60;12.90;;;;;;;;;;5029769;28;20427;-87
2022/12/22 08:45:53;;;;;;;17.40;11.50;;;;;;;;;;5029474;28;20414;-87
2022/12/22 08:48:19;;;;;;;18.50;12.70;;;;;;;;;;5014572;28;20747;-86
2022/12/22 08:50:45;;;;;;;13.73;7.43;;;;;;;;;;5014288;28;20906;-84
2022/12/22 08:53:11;;;;;;;17.40;11.03;;;;;;;;;;5014217;28;20754;-86
2022/12/22 08:55:37;;;;;;;16.50;10.90;;;;;;;;;;5029156;28;20432;-84
2022/12/22 08:58:03;;;;;;;19.13;11.60;;;;;;;;;;5029130;28;20485;-84
2022/12/22 09:00:29;;;;;;;17.00;9.27;;;;;;;;;;5013772;28;20492;-83
2022/12/22 09:02:55;;;;;;;17.70;10.50;;;;;;;;;;5014186;28;20959;-84
2022/12/22 09:05:21;;;;;;;15.20;8.27;;;;;;;;;;5029057;28;20558;-82
2022/12/22 09:07:47;;;;;;;14.87;8.33;;;;;;;;;;5034033;28;20440;-84
2022/12/22 09:10:13;;;;;;;16.80;11.60;;;;;;;;;;5022438;28;20505;-82
2022/12/22 09:12:39;;;;;;;13.73;8.30;;;;;;;;;;4984671;28;20511;-83
2022/12/22 09:15:07;;;;;;;15.90;10.13;;;;;;;;;;5018628;28;20454;-82
2022/12/22 09:17:34;;;;;;;13.50;8.83;;;;;;;;;;5026160;28;20492;-88
2022/12/22 09:20:01;;;;;;;11.97;7.20;;;;;;;;;;5025432;28;20417;-89
2022/12/22 09:22:26;;;;;;;16.47;9.57;;;;;;;;;;5043605;28;20428;-87
2022/12/22 09:24:52;;;;;;;17.83;8.37;;;;;;;;;;5024353;28;20422;-84
2022/12/22 09:27:18;;;;;;;11.60;7.20;;;;;;;;;;5036171;28;20424;-83
2022/12/22 09:29:44;;;;;;;12.63;8.17;;;;;;;;;;5023207;28;20405;-82
2022/12/22 09:32:10;;;;;;;18.10;8.83;;;;;;;;;;5021862;28;20413;-83
2022/12/22 09:34:36;;;;;;;14.23;8.40;;;;;;;;;;5037013;28;20412;-83
2022/12/22 09:37:05;;;;;;;10.70;6.37;;;;;;;;;;5022268;28;20469;-84
2022/12/22 09:39:31;;;;;;;12.90;7.00;;;;;;;;;;5021133;28;20940;-80
2022/12/22 09:41:57;;;;;;;10.40;6.73;;;;;;;;;;5021491;28;20421;-82
2022/12/22 09:44:25;;;;;;;14.00;7.10;;;;;;;;;;5020941;28;20512;-80
2022/12/22 09:46:53;;;;;;;13.87;7.60;;;;;;;;;;5036878;28;20441;-80
2022/12/22 09:49:21;;;;;;;12.57;7.90;;;;;;;;;;5018000;28;20437;-81
2022/12/22 09:51:49;;;;;;;11.63;7.70;;;;;;;;;;5017117;28;20418;-81
2022/12/22 09:54:15;;;;;;;10.33;6.93;;;;;;;;;;5016168;28;20428;-85
2022/12/22 09:56:42;;;;;;;9.77;5.93;;;;;;;;;;5020198;28;21278;-82
2022/12/22 09:59:11;;;;;;;9.77;5.97;;;;;;;;;;5018876;28;20511;-82
2022/12/22 10:01:46;;;;;;;11.57;6.43;;;;;;;;;;5021008;28;20406;-86
2022/12/22 10:04:22;;;;;;;10.00;5.30;;;;;;;;;;5018322;28;20813;-87
2022/12/22 10:07:06;;;;;;;13.03;6.77;;;;;;;;;;5017935;28;20489;-81
2022/12/22 10:09:32;;;;;;;8.83;6.20;;;;;;;;;;5019841;28;20482;-81
2022/12/22 10:12:00;;;;;;;10.60;5.77;;;;;;;;;;5038291;28;20435;-81
2022/12/22 10:14:37;;;;;;;8.60;5.00;;;;;;;;;;5041743;28;20401;-82
2022/12/22 10:17:15;;;;;;;10.60;6.10;;;;;;;;;;5026012;28;20471;-82
2022/12/22 10:19:41;;;;;;;10.03;5.63;;;;;;;;;;5023352;28;20401;-88
2022/12/22 10:22:20;;;;;;;10.37;5.90;;;;;;;;;;5046237;28;20432;-83
2022/12/22 10:24:46;;;;;;;13.57;6.70;;;;;;;;;;5024441;28;20861;-85
2022/12/22 10:27:12;;;;;;;12.73;8.20;;;;;;;;;;5039895;28;20449;-89
2022/12/22 10:29:38;;;;;;;12.57;7.37;;;;;;;;;;5017799;28;20446;-88
2022/12/22 10:32:10;;;;;;;16.60;8.50;;;;;;;;;;5014167;28;20435;-88
2022/12/22 10:34:36;;;;;;;18.07;8.80;;;;;;;;;;5016178;28;20869;-84
2022/12/22 10:37:11;;;;;;;18.43;10.33;;;;;;;;;;5016807;28;20461;-84
2022/12/22 10:39:39;;;;;;;17.10;10.03;;;;;;;;;;5014778;28;20571;-82
2022/12/22 10:42:12;;;;;;;20.67;11.27;;;;;;;;;;5015216;28;20429;-83
2022/12/22 10:44:38;;;;;;;18.47;11.50;;;;;;;;;;5015360;28;20521;-83
2022/12/22 10:47:12;;;;;;;21.60;11.20;;;;;;;;;;5017664;28;20767;-89
2022/12/22 10:49:39;;;;;;;20.83;10.10;;;;;;;;;;5016074;28;20513;-88
2022/12/22 10:52:25;;;;;;;26.00;12.93;;;;;;;;;;5015404;28;20421;-84
2022/12/22 10:54:51;;;;;;;20.67;10.87;;;;;;;;;;5015228;28;20551;-82
2022/12/22 10:57:17;;;;;;;22.47;10.57;;;;;;;;;;5014588;28;20480;-81
2022/12/22 10:59:48;;;;;;;24.23;13.83;;;;;;;;;;5015088;28;20428;-81
2022/12/22 11:02:24;;;;;;;21.87;13.20;;;;;;;;;;5015046;28;20421;-81
2022/12/22 11:04:50;;;;;;;21.87;12.47;;;;;;;;;;5015001;28;20463;-81
2022/12/22 11:07:16;;;;;;;17.47;11.13;;;;;;;;;;5014953;28;20423;-84
2022/12/22 11:09:42;;;;;;;16.90;11.87;;;;;;;;;;5014783;28;20422;-81
2022/12/22 11:12:14;;;;;;;22.33;11.57;;;;;;;;;;5015779;28;20465;-82
2022/12/22 11:14:58;;;;;;;22.13;11.90;;;;;;;;;;5014469;28;20770;-81
2022/12/22 11:17:25;;;;;;;22.20;11.20;;;;;;;;;;5014398;28;20510;-82
2022/12/22 11:20:03;;;;;;;20.50;11.20;;;;;;;;;;5014612;28;20969;-81
2022/12/22 11:22:29;;;;;;;18.80;10.90;;;;;;;;;;5014612;28;20429;-81
2022/12/22 11:25:18;;;;;;;17.83;10.00;;;;;;;;;;5014677;28;20414;-81
2022/12/22 11:27:47;;;;;;;22.80;10.93;;;;;;;;;;5014794;28;20431;-81
2022/12/22 11:30:19;;;;;;;26.60;12.50;;;;;;;;;;5014553;28;20417;-83
2022/12/22 11:33:04;;;;;;;18.27;9.80;;;;;;;;;;5014486;28;20422;-83
2022/12/22 11:35:49;;;;;;;14.47;9.53;;;;;;;;;;5014537;28;20922;-82
2022/12/22 11:38:34;;;;;;;21.63;9.60;;;;;;;;;;5014269;28;20566;-82
2022/12/22 11:41:05;;;;;;;18.50;11.67;;;;;;;;;;5013906;28;20425;-84
2022/12/22 11:43:40;;;;;;;14.80;8.83;;;;;;;;;;5014296;28;20441;-81
2022/12/22 11:46:12;;;;;;;17.63;8.97;;;;;;;;;;5014278;28;20405;-81
2022/12/22 11:48:44;;;;;;;17.93;9.90;;;;;;;;;;5014146;28;20449;-81
2022/12/22 11:51:16;;;;;;;16.73;8.07;;;;;;;;;;5014033;28;20410;-81
2022/12/22 11:54:01;;;;;;;20.50;10.93;;;;;;;;;;5013945;28;21066;-81
2022/12/22 11:56:33;;;;;;;15.50;9.73;;;;;;;;;;5013428;28;20498;-82
2022/12/22 11:59:05;;;;;;;22.50;10.20;;;;;;;;;;5013840;28;20501;-81
2022/12/22 12:01:50;;;;;;;24.27;9.90;;;;;;;;;;4971696;28;20427;-84
2022/12/22 12:04:26;;;;;;;23.17;10.77;;;;;;;;;;5015461;28;20802;-81
2022/12/22 12:07:11;;;;;;;21.53;11.83;;;;;;;;;;5015053;28;20476;-83
2022/12/22 12:09:37;;;;;;;26.40;14.07;;;;;;;;;;5014942;28;20505;-83
2022/12/22 12:12:16;;;;;;;18.57;11.67;;;;;;;;;;5014635;28;20411;-82
2022/12/22 12:14:48;;;;;;;14.57;9.30;;;;;;;;;;5031275;28;20438;-82
2022/12/22 12:17:20;;;;;;;11.10;7.47;;;;;;;;;;5015329;28;20512;-83
2022/12/22 12:20:05;;;;;;;9.97;5.77;;;;;;;;;;5014847;28;20441;-83
2022/12/22 12:22:44;;;;;;;11.30;7.17;;;;;;;;;;5014815;28;20405;-82
2022/12/22 12:25:20;;;;;;;8.77;6.37;;;;;;;;;;5014413;28;20403;-82
2022/12/22 12:27:49;;;;;;;8.77;5.17;;;;;;;;;;5014746;28;20408;-83
2022/12/22 12:30:17;;;;;;;11.77;6.80;;;;;;;;;;5014548;28;20427;-82
2022/12/22 12:32:47;;;;;;;11.63;6.60;;;;;;;;;;5014663;28;20415;-84
2022/12/22 12:35:26;;;;;;;11.57;7.60;;;;;;;;;;5029340;28;20418;-82
2022/12/22 12:37:55;;;;;;;12.63;7.47;;;;;;;;;;5014492;28;20553;-83
2022/12/22 12:40:38;;;;;;;13.93;7.53;;;;;;;;;;5014194;28;20442;-84
2022/12/22 12:43:04;;;;;;;12.63;6.93;;;;;;;;;;5029658;28;20826;-81
2022/12/22 12:45:36;;;;;;;12.57;6.23;;;;;;;;;;5014314;28;20433;-82
2022/12/22 12:48:20;;;;;;;10.80;6.10;;;;;;;;;;5014383;28;20410;-82
2022/12/22 12:50:46;;;;;;;10.70;7.00;;;;;;;;;;5014242;28;20406;-81
2022/12/22 12:53:13;;;;;;;10.57;7.73;;;;;;;;;;5014311;28;20746;-81
2022/12/22 12:55:39;;;;;;;16.60;8.80;;;;;;;;;;5013824;28;20404;-81
2022/12/22 12:58:05;;;;;;;15.07;8.30;;;;;;;;;;5014048;28;20901;-82
2022/12/22 13:00:34;;;;;;;11.07;6.60;;;;;;;;;;4975602;28;20429;-82
2022/12/22 13:03:10;;;;;;;11.80;6.53;;;;;;;;;;5029326;28;20429;-81
2022/12/22 13:05:53;;;;;;;10.90;7.07;;;;;;;;;;5014013;28;20416;-83
2022/12/22 13:08:21;;;;;;;11.97;5.70;;;;;;;;;;5014060;28;20501;-82
2022/12/22 13:10:53;;;;;;;10.70;6.80;;;;;;;;;;5028704;28;20420;-82
2022/12/22 13:13:23;;;;;;;10.27;5.40;;;;;;;;;;5013854;28;20420;-84
2022/12/22 13:16:01;;;;;;;13.70;7.67;;;;;;;;;;5013668;28;20563;-83
2022/12/22 13:18:27;;;;;;;12.83;7.23;;;;;;;;;;5028891;28;20475;-83
2022/12/22 13:21:06;;;;;;;12.43;6.97;;;;;;;;;;5013689;28;20415;-83
2022/12/22 13:23:35;;;;;;;9.90;4.80;;;;;;;;;;5013713;28;20782;-83
2022/12/22 13:26:09;;;;;;;13.90;6.97;;;;;;;;;;5013088;28;20935;-82
2022/12/22 13:28:36;;;;;;;10.17;5.97;;;;;;;;;;5013729;28;20410;-83
2022/12/22 13:31:04;;;;;;;10.50;5.53;;;;;;;;;;5013878;28;20420;-81
2022/12/22 13:33:34;;;;;;;12.60;6.87;;;;;;;;;;5028839;28;20419;-82
2022/12/22 13:36:00;;;;;;;12.43;5.97;;;;;;;;;;5013661;28;20402;-81
2022/12/22 13:38:29;;;;;;;15.03;7.83;;;;;;;;;;5013565;28;20497;-84
2022/12/22 13:40:56;;;;;;;13.43;8.33;;;;;;;;;;5029291;28;20420;-81
2022/12/22 13:43:22;;;;;;;10.00;5.90;;;;;;;;;;5015148;28;20757;-85
2022/12/22 13:45:50;;;;;;;13.80;6.77;;;;;;;;;;5015160;28;20766;-82
2022/12/22 13:48:35;;;;;;;13.87;7.37;;;;;;;;;;5013710;28;20413;-82
2022/12/22 13:51:03;;;;;;;11.63;6.00;;;;;;;;;;5014253;28;20415;-82
2022/12/22 13:53:35;;;;;;;11.47;5.30;;;;;;;;;;5014978;28;20875;-82
2022/12/22 13:56:01;;;;;;;13.60;5.70;;;;;;;;;;5013699;28;20438;-81
2022/12/22 13:58:34;;;;;;;10.70;5.73;;;;;;;;;;5028630;28;20484;-81
2022/12/22 14:01:15;;;;;;;11.70;5.43;;;;;;;;;;5013404;28;20417;-81
2022/12/22 14:03:49;;;;;;;7.97;2.90;;;;;;;;;;4995364;28;20434;-81
2022/12/22 14:06:29;;;;;;;9.50;4.67;;;;;;;;;;4998176;28;20839;-82
2022/12/22 14:09:09;;;;;;;10.90;4.90;;;;;;;;;;5013588;28;20410;-82
2022/12/22 14:11:35;;;;;;;12.00;4.80;;;;;;;;;;5012934;28;20418;-82
2022/12/22 14:14:01;;;;;;;9.93;4.20;;;;;;;;;;5013392;28;20414;-83
2022/12/22 14:16:27;;;;;;;10.43;5.13;;;;;;;;;;5013269;28;20530;-82
2022/12/22 14:18:53;;;;;;;10.67;4.50;;;;;;;;;;5013393;28;20426;-81
2022/12/22 14:21:19;;;;;;;12.10;4.37;;;;;;;;;;5028441;28;20421;-82
2022/12/22 14:23:45;;;;;;;11.10;4.77;;;;;;;;;;5013328;28;20508;-83
2022/12/22 14:26:17;;;;;;;7.83;4.47;;;;;;;;;;5012981;28;20403;-83
2022/12/22 14:28:49;;;;;;;6.23;4.10;;;;;;;;;;5013212;28;20410;-82
2022/12/22 14:31:15;;;;;;;8.80;4.93;;;;;;;;;;5013189;28;21078;-81
2022/12/22 14:33:50;;;;;;;8.30;5.27;;;;;;;;;;5013125;28;20410;-81
2022/12/22 14:36:16;;;;;;;15.13;5.80;;;;;;;;;;5013137;28;20408;-81
2022/12/22 14:38:43;;;;;;;9.17;4.57;;;;;;;;;;5013142;28;20942;-81
2022/12/22 14:41:40;;;;;;;11.00;4.20;;;;;;;;;;5012798;28;20448;-82
2022/12/22 14:43:58;;;;;;;10.47;4.30;;;;;;;;;;5013245;28;20423;-82
2022/12/22 14:46:24;;;;;;;10.20;4.60;;;;;;;;;;5013039;28;20415;-81
2022/12/22 14:48:50;;;;;;;9.90;4.23;;;;;;;;;;5013069;28;20424;-81
2022/12/22 14:51:22;;;;;;;12.37;5.30;;;;;;;;;;5013212;28;20412;-81
2022/12/22 14:53:50;;;;;;;13.00;5.00;;;;;;;;;;5013081;28;20420;-82
2022/12/22 14:56:17;;;;;;;10.13;5.13;;;;;;;;;;5012429;28;20407;-82
2022/12/22 14:58:44;;;;;;;9.47;4.17;;;;;;;;;;5014588;28;20441;-82
2022/12/22 15:01:19;;;;;;;10.20;6.00;;;;;;;;;;5018099;28;20411;-83
2022/12/22 15:03:56;;;;;;;9.40;4.43;;;;;;;;;;5034867;28;20461;-83
2022/12/22 15:06:23;;;;;;;11.43;4.90;;;;;;;;;;5035137;28;20415;-83
2022/12/22 15:08:52;;;;;;;12.37;6.60;;;;;;;;;;5034928;28;20986;-82
2022/12/22 15:11:18;;;;;;;12.47;6.20;;;;;;;;;;5034724;28;20405;-81
2022/12/22 15:13:45;;;;;;;10.20;5.03;;;;;;;;;;5037586;28;20820;-82
2022/12/22 15:16:13;;;;;;;11.80;6.10;;;;;;;;;;5037283;28;20986;-81
2022/12/22 15:18:39;;;;;;;12.40;7.33;;;;;;;;;;5037149;28;20416;-83
2022/12/22 15:21:05;;;;;;;13.03;6.33;;;;;;;;;;5036568;28;20443;-81
2022/12/22 15:23:31;;;;;;;16.33;7.13;;;;;;;;;;5036515;28;20416;-82
2022/12/22 15:25:59;;;;;;;13.10;6.30;;;;;;;;;;5035087;28;20424;-86
2022/12/22 15:28:25;;;;;;;12.83;7.03;;;;;;;;;;5035573;28;20495;-85
2022/12/22 15:30:52;;;;;;;13.87;8.00;;;;;;;;;;5035539;28;20455;-81
2022/12/22 15:33:18;;;;;;;15.80;6.97;;;;;;;;;;5035397;28;20422;-81
2022/12/22 15:35:44;;;;;;;12.67;7.07;;;;;;;;;;5035369;28;20416;-81
2022/12/22 15:38:15;;;;;;;13.90;7.67;;;;;;;;;;5035206;28;20495;-85
2022/12/22 15:40:41;;;;;;;13.13;6.93;;;;;;;;;;5034991;28;20405;-81
2022/12/22 15:43:07;;;;;;;16.63;8.90;;;;;;;;;;5035383;28;20975;-81
2022/12/22 15:45:35;;;;;;;16.57;8.20;;;;;;;;;;5035117;28;20511;-83
2022/12/22 15:48:01;;;;;;;17.10;9.40;;;;;;;;;;5035115;28;20862;-81
2022/12/22 15:50:32;;;;;;;15.47;7.43;;;;;;;;;;5035057;28;20411;-82
2022/12/22 15:52:58;;;;;;;16.23;9.23;;;;;;;;;;4984070;28;20439;-83
2022/12/22 15:55:24;;;;;;;14.30;7.03;;;;;;;;;;5014959;28;20408;-82
2022/12/22 15:57:52;;;;;;;15.97;7.83;;;;;;;;;;5015073;28;20474;-81
2022/12/22 16:00:18;;;;;;;13.13;7.67;;;;;;;;;;5015151;28;20512;-82
2022/12/22 16:02:44;;;;;;;17.97;7.50;;;;;;;;;;5017867;28;20932;-81
2022/12/22 16:05:10;;;;;;;16.33;7.93;;;;;;;;;;5034323;28;20851;-81
2022/12/22 16:07:37;;;;;;;13.00;6.87;;;;;;;;;;5034874;28;20431;-81
2022/12/22 16:10:03;;;;;;;18.57;8.20;;;;;;;;;;5033662;28;20416;-82
2022/12/22 16:12:31;;;;;;;14.10;8.40;;;;;;;;;;5034866;28;20823;-81
2022/12/22 16:14:58;;;;;;;16.13;7.83;;;;;;;;;;5034486;28;20874;-81
2022/12/22 16:17:25;;;;;;;13.00;7.43;;;;;;;;;;5050042;28;21033;-81
2022/12/22 16:19:51;;;;;;;15.07;9.20;;;;;;;;;;5050178;28;21002;-80
2022/12/22 16:22:19;;;;;;;15.27;7.13;;;;;;;;;;5034790;28;20800;-81
2022/12/22 16:24:46;;;;;;;18.70;8.20;;;;;;;;;;5034383;28;20744;-80
2022/12/22 16:27:12;;;;;;;13.67;6.93;;;;;;;;;;5031488;28;20395;-80
2022/12/22 16:29:40;;;;;;;16.13;8.07;;;;;;;;;;5020109;28;20471;-82
2022/12/22 16:32:21;;;;;;;16.13;7.93;;;;;;;;;;5015074;28;20415;-83
2022/12/22 16:34:47;;;;;;;19.13;6.43;;;;;;;;;;5014957;28;20399;-82
2022/12/22 16:37:14;;;;;;;12.60;6.70;;;;;;;;;;5013877;28;20481;-81
2022/12/22 16:39:40;;;;;;;15.37;6.63;;;;;;;;;;5015279;28;20457;-80
2022/12/22 16:42:06;;;;;;;14.50;6.37;;;;;;;;;;5014618;28;20430;-80
2022/12/22 16:44:32;;;;;;;14.07;5.53;;;;;;;;;;5020382;28;20410;-80
2022/12/22 16:46:58;;;;;;;16.90;7.57;;;;;;;;;;5015198;28;20422;-80
2022/12/22 16:49:24;;;;;;;16.13;8.00;;;;;;;;;;5019119;28;20438;-80
2022/12/22 16:51:52;;;;;;;15.20;6.90;;;;;;;;;;5002484;28;20844;-80
2022/12/22 16:54:18;;;;;;;23.03;7.13;;;;;;;;;;5002631;28;20421;-83
2022/12/22 16:56:45;;;;;;;15.57;6.93;;;;;;;;;;5029575;28;20500;-82
2022/12/22 16:59:11;;;;;;;13.30;6.53;;;;;;;;;;5014025;28;20424;-79
2022/12/22 17:01:39;;;;;;;11.77;5.90;;;;;;;;;;5014107;28;20405;-80
2022/12/22 17:04:34;;;;;;;20.43;5.13;;;;;;;;;;5017832;28;20786;-81
2022/12/22 17:07:01;;;;;;;12.30;6.60;;;;;;;;;;5024772;28;20924;-79
2022/12/22 17:09:33;;;;;;;17.60;8.70;;;;;;;;;;5033283;28;20771;-81
2022/12/22 17:12:00;;;;;;;18.90;8.87;;;;;;;;;;5033564;28;20415;-81
2022/12/22 17:14:32;;;;;;;23.87;10.13;;;;;;;;;;5022158;28;20467;-82
2022/12/22 17:16:58;;;;;;;28.03;9.63;;;;;;;;;;5023593;28;20522;-80
2022/12/22 17:19:27;;;;;;;18.40;8.17;;;;;;;;;;5023279;28;20798;-83
2022/12/22 17:21:53;;;;;;;15.07;7.17;;;;;;;;;;5021869;28;20439;-81
2022/12/22 17:24:21;;;;;;;16.33;7.20;;;;;;;;;;5030203;28;20415;-80
2022/12/22 17:26:47;;;;;;;10.90;5.37;;;;;;;;;;5033366;28;20480;-80
2022/12/22 17:29:17;;;;;;;15.47;6.00;;;;;;;;;;5033454;28;20501;-81
2022/12/22 17:31:43;;;;;;;9.77;6.00;;;;;;;;;;5033395;28;20418;-81
2022/12/22 17:34:21;;;;;;;10.73;5.03;;;;;;;;;;5033301;28;20455;-81
2022/12/22 17:36:48;;;;;;;12.40;5.90;;;;;;;;;;5033111;28;20465;-82
2022/12/22 17:39:24;;;;;;;15.20;7.90;;;;;;;;;;5032892;28;20401;-80
2022/12/22 17:41:50;;;;;;;14.07;7.20;;;;;;;;;;5033248;28;20405;-81
2022/12/22 17:44:18;;;;;;;14.53;7.30;;;;;;;;;;5033176;28;20505;-82
2022/12/22 17:46:44;;;;;;;14.70;6.67;;;;;;;;;;5033717;28;20421;-80
2022/12/22 17:49:12;;;;;;;11.03;6.07;;;;;;;;;;5048990;28;20774;-80
2022/12/22 17:51:38;;;;;;;11.67;7.33;;;;;;;;;;5033503;28;20463;-79
2022/12/22 17:54:04;;;;;;;12.70;5.50;;;;;;;;;;5033388;28;20900;-82
2022/12/22 17:56:31;;;;;;;11.27;5.83;;;;;;;;;;4994314;28;20576;-82
2022/12/22 17:58:57;;;;;;;10.80;6.47;;;;;;;;;;5033203;28;20459;-82
2022/12/22 18:01:30;;;;;;;14.67;6.40;;;;;;;;;;5033454;28;20412;-81
2022/12/22 18:03:57;;;;;;;13.50;6.60;;;;;;;;;;5033337;28;20411;-81
2022/12/22 18:06:28;;;;;;;9.20;6.30;;;;;;;;;;5048371;28;20944;-82
2022/12/22 18:08:55;;;;;;;13.77;6.47;;;;;;;;;;5033331;28;20417;-81
2022/12/22 18:11:21;;;;;;;10.63;5.80;;;;;;;;;;5035285;28;20424;-81
2022/12/22 18:13:48;;;;;;;10.77;5.27;;;;;;;;;;5045554;28;20434;-82
2022/12/22 18:16:15;;;;;;;11.73;5.10;;;;;;;;;;5049786;28;20475;-81
2022/12/22 18:18:41;;;;;;;19.87;6.60;;;;;;;;;;5033772;28;20532;-82